createdAt,value
2022-12-23T00:02:11.163Z,17.6
2022-12-23T00:04:58.582Z,14.7
2022-12-23T00:07:45.937Z,12.6
2022-12-23T00:10:33.293Z,15.7
2022-12-23T00:13:23.167Z,11.8
2022-12-23T00:18:12.259Z,14.2
2022-12-23T00:21:04.820Z,13.2
2022-12-23T00:23:57.463Z,13.6
2022-12-23T00:26:44.736Z,14.3
2022-12-23T00:29:32.092Z,12
2022-12-23T00:32:19.479Z,12.2
2022-12-23T00:35:06.895Z,14.7
2022-12-23T00:37:54.526Z,14.5
2022-12-23T00:40:41.870Z,15.3
2022-12-23T00:44:01.010Z,13.1
2022-12-23T00:46:49.614Z,13.7
2022-12-23T00:49:37.050Z,13
2022-12-23T00:52:27.771Z,13.4
2022-12-23T00:55:15.140Z,11.7
2022-12-23T00:58:02.603Z,12
2022-12-23T01:00:50.011Z,12.2
2022-12-23T01:04:10.630Z,12.3
2022-12-23T01:07:30.305Z,15
2022-12-23T01:10:17.649Z,11.3
2022-12-23T01:13:04.905Z,13.4
2022-12-23T01:15:52.750Z,14.2
2022-12-23T01:18:45.924Z,16.4
2022-12-23T01:21:33.369Z,12.9
2022-12-23T01:24:20.902Z,13.3
2022-12-23T01:27:08.365Z,12.6
2022-12-23T01:29:55.703Z,11.2
2022-12-23T01:32:42.868Z,11
2022-12-23T01:35:30.204Z,11.9
2022-12-23T01:38:17.435Z,12.2
2022-12-23T01:41:05.265Z,12.4
2022-12-23T01:43:53.273Z,14.7
2022-12-23T01:46:40.569Z,13.6
2022-12-23T01:49:27.870Z,15
2022-12-23T01:52:15.241Z,14
2022-12-23T01:55:03.452Z,15.2
2022-12-23T01:57:52.411Z,15.5
2022-12-23T02:00:42.513Z,17.8
2022-12-23T02:04:01.706Z,14.6
2022-12-23T02:06:52.444Z,16.8
2022-12-23T02:10:11.511Z,16.5
2022-12-23T02:12:58.762Z,18.6
2022-12-23T02:15:57.027Z,16.1
2022-12-23T02:19:01.442Z,18.9
2022-12-23T02:21:59.413Z,19.1
2022-12-23T02:25:04.348Z,17.3
2022-12-23T02:28:14.994Z,18.4
2022-12-23T02:31:23.638Z,20.7
2022-12-23T02:34:20.487Z,22.9
2022-12-23T02:37:14.949Z,24
2022-12-23T02:40:09.532Z,21.5
2022-12-23T02:43:07.989Z,28.4
2022-12-23T02:46:00.929Z,22.4
2022-12-23T02:48:54.868Z,24.1
2022-12-23T02:51:46.844Z,25.6
2022-12-23T02:54:39.151Z,26.4
2022-12-23T02:57:31.023Z,26.5
2022-12-23T03:00:21.494Z,28.1
2022-12-23T03:03:09.350Z,28.5
2022-12-23T03:05:57.299Z,27.2
2022-12-23T03:08:44.789Z,30.8
2022-12-23T03:11:34.735Z,27.7
2022-12-23T03:14:30.835Z,26.9
2022-12-23T03:17:46.757Z,27.7
2022-12-23T03:20:45.897Z,28.2
2022-12-23T03:23:39.708Z,30
2022-12-23T03:26:31.939Z,28.5
2022-12-23T03:29:23.851Z,26.9
2022-12-23T03:32:15.944Z,29
2022-12-23T03:35:04.947Z,28.3
2022-12-23T03:37:54.547Z,35.3
2022-12-23T03:40:44.627Z,24.1
2022-12-23T03:43:37.971Z,23.6
2022-12-23T03:46:30.544Z,23.1
2022-12-23T03:49:23.218Z,25.7
2022-12-23T03:52:21.105Z,24.9
2022-12-23T03:55:16.256Z,24.4
2022-12-23T03:58:09.742Z,23.2
2022-12-23T04:01:04.843Z,28.6
2022-12-23T04:04:00.498Z,22.3
2022-12-23T04:06:54.026Z,22.7
2022-12-23T04:09:44.320Z,23.4
2022-12-23T04:12:32.758Z,19.3
2022-12-23T04:15:21.102Z,22.8
2022-12-23T04:18:11.391Z,24.8
2022-12-23T04:21:00.802Z,25.3
2022-12-23T04:23:48.329Z,20.5
2022-12-23T04:26:35.614Z,21.2
2022-12-23T04:29:23.022Z,22.3
2022-12-23T04:32:10.339Z,21.4
2022-12-23T04:34:57.656Z,19.4
2022-12-23T04:37:44.980Z,22.3
2022-12-23T04:40:32.175Z,22.5
2022-12-23T04:43:19.484Z,23.4
2022-12-23T04:46:06.837Z,16.8
2022-12-23T04:48:54.237Z,20.5
2022-12-23T04:51:41.506Z,15.8
2022-12-23T04:54:28.807Z,23.3
2022-12-23T04:57:16.163Z,20.1
2022-12-23T05:00:03.735Z,31.5
2022-12-23T05:02:53.510Z,18
2022-12-23T05:05:41.009Z,18.8
2022-12-23T05:08:28.911Z,17.1
2022-12-23T05:11:16.539Z,19.6
2022-12-23T05:14:04.108Z,23.2
2022-12-23T05:16:51.487Z,19.2
2022-12-23T05:19:39.213Z,19.7
2022-12-23T05:22:26.619Z,23.6
2022-12-23T05:25:13.934Z,22.9
2022-12-23T05:28:01.322Z,21.8
2022-12-23T05:30:50.106Z,26
2022-12-23T05:33:43.947Z,21.8
2022-12-23T05:36:31.280Z,25.9
2022-12-23T05:39:18.610Z,24.7
2022-12-23T05:42:06.012Z,26.3
2022-12-23T05:44:53.471Z,24.5
2022-12-23T05:47:40.730Z,27.9
2022-12-23T05:50:28.216Z,25.5
2022-12-23T05:53:15.763Z,23.1
2022-12-23T05:56:03.934Z,26.1
2022-12-23T05:58:52.302Z,28.7
2022-12-23T06:01:39.940Z,28.5
2022-12-23T06:04:27.395Z,26.6
2022-12-23T06:07:14.975Z,25.9
2022-12-23T06:10:02.581Z,26.2
2022-12-23T06:12:53.094Z,26
2022-12-23T06:15:40.420Z,29.1
2022-12-23T06:18:27.790Z,27
2022-12-23T06:21:15.016Z,29
2022-12-23T06:24:02.391Z,27.5
2022-12-23T06:26:56.547Z,24.4
2022-12-23T06:29:44.476Z,28.5
2022-12-23T06:32:37.922Z,25.1
2022-12-23T06:35:26.324Z,26.9
2022-12-23T06:38:13.735Z,27
2022-12-23T06:41:01.655Z,30
2022-12-23T06:43:54.110Z,29.7
2022-12-23T06:46:41.729Z,30.4
2022-12-23T06:49:29.130Z,25.5
2022-12-23T06:52:16.434Z,28.1
2022-12-23T06:55:03.712Z,26.7
2022-12-23T06:57:51.924Z,24.6
2022-12-23T07:00:39.411Z,25.4
2022-12-23T07:03:27.000Z,27.1
2022-12-23T07:06:14.486Z,26.8
2022-12-23T07:09:01.880Z,26.1
2022-12-23T07:11:49.570Z,48.8
2022-12-23T07:14:37.158Z,108.4
2022-12-23T07:17:24.587Z,68.2
2022-12-23T07:20:11.873Z,46.7
2022-12-23T07:22:59.440Z,35.2
2022-12-23T07:25:46.944Z,32.4
2022-12-23T07:28:34.368Z,30.3
2022-12-23T07:31:21.816Z,30
2022-12-23T07:34:09.168Z,28
2022-12-23T07:36:56.542Z,31.2
2022-12-23T07:39:43.909Z,31.5
2022-12-23T07:42:44.898Z,26.7
2022-12-23T07:45:34.595Z,26.8
2022-12-23T07:48:22.079Z,27.3
2022-12-23T07:51:09.418Z,30
2022-12-23T07:53:56.765Z,36.3
2022-12-23T07:56:44.012Z,35.4
2022-12-23T07:59:31.310Z,38.4
2022-12-23T08:02:18.772Z,37.2
2022-12-23T08:05:09.440Z,30.8
2022-12-23T08:07:57.523Z,28
2022-12-23T08:10:48.553Z,26.1
2022-12-23T08:13:36.042Z,25
2022-12-23T08:16:25.903Z,19.7
2022-12-23T08:19:13.350Z,18.6
2022-12-23T08:22:00.725Z,21.3
2022-12-23T08:24:48.145Z,25.2
2022-12-23T08:27:35.699Z,23.2
2022-12-23T08:30:23.402Z,24.7
2022-12-23T08:33:10.675Z,20.9
2022-12-23T08:35:57.932Z,23.4
2022-12-23T08:38:45.255Z,23.1
2022-12-23T08:41:32.955Z,20.5
2022-12-23T08:44:23.394Z,21.4
2022-12-23T08:47:12.537Z,23.5
2022-12-23T08:49:59.817Z,23.5
2022-12-23T08:52:47.459Z,17.4
2022-12-23T08:55:35.183Z,19.7
2022-12-23T08:58:23.490Z,20
2022-12-23T09:01:10.900Z,18.4
2022-12-23T09:04:01.907Z,19.7
2022-12-23T09:06:50.657Z,19.9
2022-12-23T09:09:38.091Z,18.5
2022-12-23T09:12:25.963Z,19.1
2022-12-23T09:15:13.646Z,20.2
2022-12-23T09:18:01.443Z,20.9
2022-12-23T09:20:49.044Z,18.2
2022-12-23T09:23:43.275Z,18.2
2022-12-23T09:26:30.817Z,18.2
2022-12-23T09:29:18.171Z,20.5
2022-12-23T09:32:05.657Z,19.7
2022-12-23T09:34:52.995Z,15.9
2022-12-23T09:37:41.031Z,21
2022-12-23T09:40:28.356Z,19.1
2022-12-23T09:43:19.543Z,19.7
2022-12-23T09:46:15.536Z,17.3
2022-12-23T09:49:06.688Z,17.7
2022-12-23T09:51:57.191Z,17.5
2022-12-23T09:54:48.707Z,17.9
2022-12-23T09:57:40.483Z,19.4
2022-12-23T10:00:36.910Z,19.7
2022-12-23T10:03:28.802Z,21.2
2022-12-23T10:06:25.288Z,18.4
2022-12-23T10:09:14.630Z,18.9
2022-12-23T10:12:03.731Z,21.7
2022-12-23T10:15:01.685Z,19.6
2022-12-23T10:18:01.572Z,18
2022-12-23T10:20:57.234Z,20.5
2022-12-23T10:23:49.854Z,20.4
2022-12-23T10:26:40.045Z,20.3
2022-12-23T10:29:36.507Z,20.4
2022-12-23T10:32:23.887Z,18.4
2022-12-23T10:35:24.594Z,20.4
2022-12-23T10:38:30.409Z,18
2022-12-23T10:41:29.310Z,19.4
2022-12-23T10:44:31.339Z,19.1
2022-12-23T10:47:36.053Z,20.4
2022-12-23T10:50:37.025Z,17.9
2022-12-23T10:53:36.696Z,19.1
2022-12-23T10:56:28.481Z,20.9
2022-12-23T10:59:16.525Z,24.6
2022-12-23T11:02:09.637Z,20.4
2022-12-23T11:05:16.155Z,21.6
2022-12-23T11:08:12.416Z,23.3
2022-12-23T11:11:00.335Z,23.2
2022-12-23T11:13:47.994Z,22.2
2022-12-23T11:16:35.815Z,22.5
2022-12-23T11:19:30.670Z,23.4
2022-12-23T11:22:18.197Z,19.1
2022-12-23T11:25:09.701Z,20.9
2022-12-23T11:28:11.895Z,21.9
2022-12-23T11:31:02.184Z,22
2022-12-23T11:33:54.072Z,22.1
2022-12-23T11:36:44.000Z,22.1
2022-12-23T11:39:38.856Z,20.7
2022-12-23T11:42:31.437Z,21.9
2022-12-23T11:45:19.920Z,20.7
2022-12-23T11:48:10.171Z,21.9
2022-12-23T11:51:12.986Z,22.3
2022-12-23T11:54:11.606Z,20.6
2022-12-23T11:57:04.892Z,21.1
2022-12-23T12:00:00.760Z,22.6
2022-12-23T12:02:52.261Z,22.1
2022-12-23T12:05:43.198Z,19.9
2022-12-23T12:08:34.867Z,19.2
2022-12-23T12:11:23.502Z,23
2022-12-23T12:14:14.547Z,22.5
2022-12-23T12:17:07.597Z,24
2022-12-23T12:20:02.796Z,20.1
2022-12-23T12:22:57.355Z,21.5
2022-12-23T12:25:49.759Z,22.1
2022-12-23T12:28:40.424Z,24.1
2022-12-23T12:31:31.636Z,28.6
2022-12-23T12:34:24.618Z,24.5
2022-12-23T12:37:34.686Z,27.9
2022-12-23T12:40:27.838Z,29.6
2022-12-23T12:43:21.253Z,29.2
2022-12-23T12:46:13.290Z,31.4
2022-12-23T12:49:11.770Z,34.4
2022-12-23T12:52:07.397Z,32
2022-12-23T12:54:59.268Z,28.6
2022-12-23T12:57:58.181Z,29.4
2022-12-23T13:00:47.240Z,26.1
2022-12-23T13:03:48.232Z,28.3
2022-12-23T13:06:57.295Z,28.4
2022-12-23T13:09:51.250Z,23.6
2022-12-23T13:12:45.689Z,28.1
2022-12-23T13:15:43.433Z,26.3
2022-12-23T13:18:37.931Z,25.2
2022-12-23T13:21:32.240Z,25.4
2022-12-23T13:24:28.301Z,28.5
2022-12-23T13:27:22.327Z,28
2022-12-23T13:30:17.273Z,24.9
2022-12-23T13:33:08.347Z,29.5
2022-12-23T13:36:08.307Z,28.9
2022-12-23T13:39:15.663Z,26.6
2022-12-23T13:42:18.264Z,25.3
2022-12-23T13:45:12.576Z,27.5
2022-12-23T13:48:05.012Z,27.2
2022-12-23T13:51:12.419Z,25.5
2022-12-23T13:54:08.201Z,24.7
2022-12-23T13:57:05.534Z,23.5
2022-12-23T14:00:06.576Z,23.4
2022-12-23T14:03:10.960Z,21.5
2022-12-23T14:06:09.686Z,26.2
2022-12-23T14:09:26.544Z,23.9
2022-12-23T14:12:17.254Z,22.8
2022-12-23T14:15:10.853Z,21.1
2022-12-23T14:18:12.958Z,24.3
2022-12-23T14:21:16.984Z,23.6
2022-12-23T14:24:17.026Z,24.9
2022-12-23T14:27:33.398Z,26.7
2022-12-23T14:30:33.211Z,23.1
2022-12-23T14:33:23.339Z,24.1
2022-12-23T14:36:12.794Z,23.6
2022-12-23T14:39:07.810Z,24.4
2022-12-23T14:42:27.340Z,22.7
2022-12-23T14:45:26.916Z,21
2022-12-23T14:48:20.023Z,23.7
2022-12-23T14:51:57.724Z,24.2
2022-12-23T14:55:31.507Z,25.7
2022-12-23T14:58:54.451Z,26.4
2022-12-23T15:01:59.395Z,21.7
2022-12-23T15:04:48.981Z,23.7
2022-12-23T15:07:41.175Z,24.7
2022-12-23T15:10:31.871Z,23
2022-12-23T15:13:22.294Z,19.8
2022-12-23T15:16:12.512Z,24.7
2022-12-23T15:19:02.283Z,24.8
2022-12-23T15:22:13.258Z,21.5
2022-12-23T15:25:07.176Z,27.8
2022-12-23T15:28:06.006Z,25.5
2022-12-23T15:31:03.114Z,25
2022-12-23T15:34:05.471Z,22.4
2022-12-23T15:37:02.725Z,22.5
2022-12-23T15:40:06.168Z,24.6
2022-12-23T15:43:10.312Z,27.8
2022-12-23T15:46:04.692Z,28.7
2022-12-23T15:48:59.538Z,25.7
2022-12-23T15:52:07.085Z,26.4
2022-12-23T15:54:56.255Z,28.9
2022-12-23T15:57:54.958Z,24.8
2022-12-23T16:00:43.985Z,22.7
2022-12-23T16:03:38.443Z,27.2
2022-12-23T16:06:30.839Z,23.2
2022-12-23T16:09:21.115Z,24.3
2022-12-23T16:12:17.867Z,24
2022-12-23T16:15:08.499Z,22.9
2022-12-23T16:18:14.198Z,23.1
2022-12-23T16:21:07.291Z,24.2
2022-12-23T16:23:58.780Z,20.9
2022-12-23T16:26:47.969Z,24.7
2022-12-23T16:29:35.824Z,18.9
2022-12-23T16:32:25.312Z,20.8
2022-12-23T16:35:12.772Z,18.3
2022-12-23T16:38:14.880Z,21.9
2022-12-23T16:41:04.808Z,20.4
2022-12-23T16:43:52.972Z,22
2022-12-23T16:46:40.718Z,23.2
2022-12-23T16:49:33.794Z,17.9
2022-12-23T16:52:22.492Z,21.1
2022-12-23T16:55:09.726Z,19.6
2022-12-23T16:58:00.753Z,19
2022-12-23T17:00:48.349Z,22.3
2022-12-23T17:03:37.643Z,17.8
2022-12-23T17:06:25.008Z,19.4
2022-12-23T17:09:12.582Z,17.6
2022-12-23T17:12:00.738Z,18.5
2022-12-23T17:14:48.559Z,18.6
2022-12-23T17:17:35.780Z,17.4
2022-12-23T17:20:23.724Z,17.5
2022-12-23T17:23:11.065Z,29.8
2022-12-23T17:26:10.466Z,20.3
2022-12-23T17:28:57.773Z,35.8
2022-12-23T17:31:45.251Z,50.2
2022-12-23T17:34:34.734Z,18.9
2022-12-23T17:37:22.082Z,22.6
2022-12-23T17:40:09.521Z,52.6
2022-12-23T17:42:59.043Z,47.8
2022-12-23T17:45:46.345Z,19.3
2022-12-23T17:48:34.160Z,18.7
2022-12-23T17:51:21.451Z,18.5
2022-12-23T17:54:08.840Z,19
2022-12-23T17:57:06.594Z,18.1
2022-12-23T18:00:03.349Z,19.8
2022-12-23T18:02:52.750Z,18.8
2022-12-23T18:05:40.593Z,19
2022-12-23T18:08:27.929Z,20.8
2022-12-23T18:11:15.358Z,25.1
2022-12-23T18:14:06.253Z,21.1
2022-12-23T18:17:01.447Z,21.1
2022-12-23T18:19:49.036Z,21.3
2022-12-23T18:22:36.505Z,21.9
2022-12-23T18:25:23.896Z,22.7
2022-12-23T18:28:12.286Z,19.6
2022-12-23T18:30:59.666Z,21.5
2022-12-23T18:33:47.145Z,21.4
2022-12-23T18:36:34.682Z,21.1
2022-12-23T18:39:22.016Z,18
2022-12-23T18:42:09.419Z,19.2
2022-12-23T18:44:58.686Z,20.2
2022-12-23T18:47:46.136Z,22.7
2022-12-23T18:50:33.472Z,20.3
2022-12-23T18:53:24.739Z,23
2022-12-23T18:56:12.465Z,23.4
2022-12-23T18:59:01.650Z,19.7
2022-12-23T19:01:49.060Z,19.9
2022-12-23T19:04:36.502Z,32.1
2022-12-23T19:07:23.779Z,23
2022-12-23T19:10:11.131Z,33.7
2022-12-23T19:13:02.171Z,37.1
2022-12-23T19:15:50.117Z,38.4
2022-12-23T19:18:38.019Z,36.7
2022-12-23T19:21:25.526Z,39.6
2022-12-23T19:24:12.974Z,35.9
2022-12-23T19:27:00.335Z,40.7
2022-12-23T19:29:47.668Z,44.7
2022-12-23T19:32:34.970Z,37.3
2022-12-23T19:35:22.383Z,41.4
2022-12-23T19:38:10.007Z,52.9
2022-12-23T19:40:57.442Z,40.8
2022-12-23T19:43:44.816Z,41.3
2022-12-23T19:46:32.442Z,38.1
2022-12-23T19:49:20.509Z,43.8
2022-12-23T19:52:08.378Z,48.8
2022-12-23T19:54:55.758Z,44.5
2022-12-23T19:57:43.218Z,40
2022-12-23T20:00:30.608Z,51.3
2022-12-23T20:03:18.119Z,48.7
2022-12-23T20:06:05.611Z,52.9
2022-12-23T20:09:00.656Z,48.8
2022-12-23T20:11:50.744Z,51.9
2022-12-23T20:14:38.191Z,46.2
2022-12-23T20:17:25.672Z,51.6
2022-12-23T20:20:13.008Z,61.8
2022-12-23T20:23:00.344Z,60.4
2022-12-23T20:25:47.767Z,63.9
2022-12-23T20:28:35.903Z,60.5
2022-12-23T20:31:23.476Z,60.9
2022-12-23T20:34:12.677Z,62
2022-12-23T20:37:02.265Z,55.9
2022-12-23T20:39:49.675Z,65.1
2022-12-23T20:42:38.205Z,69.8
2022-12-23T20:45:25.910Z,69.6
2022-12-23T20:48:13.219Z,65.2
2022-12-23T20:51:02.640Z,63.9
2022-12-23T20:53:51.449Z,66
2022-12-23T20:56:44.257Z,74.2
2022-12-23T20:59:31.560Z,62.3
2022-12-23T21:02:19.138Z,62.4
2022-12-23T21:05:06.584Z,68.5
2022-12-23T21:07:54.327Z,66.4
2022-12-23T21:10:41.674Z,73.2
2022-12-23T21:13:28.970Z,66.2
2022-12-23T21:16:16.464Z,57.6
2022-12-23T21:19:03.924Z,66
2022-12-23T21:21:52.874Z,59.4
2022-12-23T21:24:40.421Z,64
2022-12-23T21:27:27.855Z,65.1
2022-12-23T21:30:15.075Z,67.3
2022-12-23T21:33:02.473Z,59.8
2022-12-23T21:35:49.803Z,57
2022-12-23T21:38:37.209Z,58.7
2022-12-23T21:41:27.293Z,55.8
2022-12-23T21:44:16.941Z,54.6
2022-12-23T21:47:04.432Z,50.5
2022-12-23T21:49:51.766Z,54.2
2022-12-23T21:52:39.105Z,59.7
2022-12-23T21:55:27.059Z,52.6
2022-12-23T21:58:14.315Z,47.5
2022-12-23T22:01:01.770Z,55.5
2022-12-23T22:03:52.887Z,54.5
2022-12-23T22:06:41.866Z,51.8
2022-12-23T22:09:30.037Z,44.4
2022-12-23T22:12:17.593Z,51.5
2022-12-23T22:15:11.153Z,47.6
2022-12-23T22:17:59.018Z,44.1
2022-12-23T22:20:46.712Z,42.1
2022-12-23T22:23:34.182Z,42.4
2022-12-23T22:26:25.498Z,47.7
2022-12-23T22:29:15.553Z,47.9
2022-12-23T22:32:04.063Z,46.5
2022-12-23T22:34:51.547Z,50.1
2022-12-23T22:37:38.746Z,50.9
2022-12-23T22:40:26.601Z,52.1
2022-12-23T22:43:13.998Z,47.6
2022-12-23T22:46:01.957Z,42.6
2022-12-23T22:48:50.713Z,46.8
2022-12-23T22:51:38.290Z,43.5
2022-12-23T22:54:27.722Z,46.6
2022-12-23T22:57:15.217Z,37.8
2022-12-23T23:00:09.656Z,39.5
2022-12-23T23:03:00.105Z,40.6
2022-12-23T23:05:48.212Z,38
2022-12-23T23:08:45.257Z,38.9
2022-12-23T23:11:32.588Z,40.1
2022-12-23T23:14:20.538Z,40.6
2022-12-23T23:17:07.952Z,37
2022-12-23T23:19:55.351Z,37.3
2022-12-23T23:22:42.650Z,40.1
2022-12-23T23:25:29.979Z,35.9
2022-12-23T23:28:17.419Z,33.5
2022-12-23T23:31:39.696Z,36.2
2022-12-23T23:34:28.263Z,35.8
2022-12-23T23:37:15.710Z,37.6
2022-12-23T23:40:03.340Z,31.9
2022-12-23T23:42:52.945Z,34.7
2022-12-23T23:45:40.341Z,36.8
2022-12-23T23:48:27.797Z,31.3
2022-12-23T23:51:15.230Z,31.8
2022-12-23T23:54:02.590Z,34
2022-12-23T23:56:50.178Z,34.7
2022-12-23T23:59:37.483Z,32.1
